sensor_id;sensor_type;location;lat;lon;timestamp;P1;durP1;ratioP1;P2;durP2;ratioP2
84231;SDS011;74368;48.022;13.830;2024-03-07T00:02:17;30.55;;;13.07;;
84231;SDS011;74368;48.022;13.830;2024-03-07T00:04:42;28.73;;;13.25;;
84231;SDS011;74368;48.022;13.830;2024-03-07T00:07:08;27.40;;;11.63;;
84231;SDS011;74368;48.022;13.830;2024-03-07T00:09:34;29.42;;;12.18;;
84231;SDS011;74368;48.022;13.830;2024-03-07T00:12:00;27.70;;;13.10;;
84231;SDS011;74368;48.022;13.830;2024-03-07T00:14:26;24.45;;;12.32;;
84231;SDS011;74368;48.022;13.830;2024-03-07T00:16:53;29.80;;;13.85;;
84231;SDS011;74368;48.022;13.830;2024-03-07T00:19:19;26.77;;;13.45;;
84231;SDS011;74368;48.022;13.830;2024-03-07T00:21:46;29.48;;;13.38;;
84231;SDS011;74368;48.022;13.830;2024-03-07T00:24:11;28.50;;;13.27;;
84231;SDS011;74368;48.022;13.830;2024-03-07T00:26:38;27.83;;;13.35;;
84231;SDS011;74368;48.022;13.830;2024-03-07T00:29:05;33.72;;;13.63;;
84231;SDS011;74368;48.022;13.830;2024-03-07T00:31:31;25.67;;;13.02;;
84231;SDS011;74368;48.022;13.830;2024-03-07T00:33:57;23.08;;;12.23;;
84231;SDS011;74368;48.022;13.830;2024-03-07T00:36:23;28.40;;;13.10;;
84231;SDS011;74368;48.022;13.830;2024-03-07T00:38:48;28.40;;;12.90;;
84231;SDS011;74368;48.022;13.830;2024-03-07T00:41:14;26.00;;;13.07;;
84231;SDS011;74368;48.022;13.830;2024-03-07T00:43:40;23.83;;;12.45;;
84231;SDS011;74368;48.022;13.830;2024-03-07T00:46:06;28.63;;;13.32;;
84231;SDS011;74368;48.022;13.830;2024-03-07T00:48:32;30.70;;;13.88;;
84231;SDS011;74368;48.022;13.830;2024-03-07T00:50:57;33.63;;;15.65;;
84231;SDS011;74368;48.022;13.830;2024-03-07T00:53:23;37.90;;;16.85;;
84231;SDS011;74368;48.022;13.830;2024-03-07T00:55:48;33.15;;;16.73;;
84231;SDS011;74368;48.022;13.830;2024-03-07T00:58:13;34.00;;;14.77;;
84231;SDS011;74368;48.022;13.830;2024-03-07T01:00:39;36.08;;;17.67;;
84231;SDS011;74368;48.022;13.830;2024-03-07T01:03:08;38.22;;;17.73;;
84231;SDS011;74368;48.022;13.830;2024-03-07T01:05:36;36.83;;;16.85;;
84231;SDS011;74368;48.022;13.830;2024-03-07T01:08:01;41.53;;;18.08;;
84231;SDS011;74368;48.022;13.830;2024-03-07T01:10:27;40.15;;;17.50;;
84231;SDS011;74368;48.022;13.830;2024-03-07T01:12:53;36.22;;;16.10;;
84231;SDS011;74368;48.022;13.830;2024-03-07T01:15:22;43.78;;;18.92;;
84231;SDS011;74368;48.022;13.830;2024-03-07T01:17:48;39.30;;;18.70;;
84231;SDS011;74368;48.022;13.830;2024-03-07T01:20:13;38.28;;;17.35;;
84231;SDS011;74368;48.022;13.830;2024-03-07T01:22:38;38.33;;;18.48;;
84231;SDS011;74368;48.022;13.830;2024-03-07T01:25:04;35.28;;;18.48;;
84231;SDS011;74368;48.022;13.830;2024-03-07T01:27:31;36.70;;;17.63;;
84231;SDS011;74368;48.022;13.830;2024-03-07T01:29:57;39.63;;;17.50;;
84231;SDS011;74368;48.022;13.830;2024-03-07T01:32:22;36.30;;;19.48;;
84231;SDS011;74368;48.022;13.830;2024-03-07T01:34:47;33.50;;;15.93;;
84231;SDS011;74368;48.022;13.830;2024-03-07T01:37:13;32.90;;;16.73;;
84231;SDS011;74368;48.022;13.830;2024-03-07T01:39:38;38.80;;;17.65;;
84231;SDS011;74368;48.022;13.830;2024-03-07T01:42:03;35.65;;;16.75;;
84231;SDS011;74368;48.022;13.830;2024-03-07T01:44:29;36.65;;;17.55;;
84231;SDS011;74368;48.022;13.830;2024-03-07T01:46:56;39.88;;;18.67;;
84231;SDS011;74368;48.022;13.830;2024-03-07T01:49:23;40.67;;;19.60;;
84231;SDS011;74368;48.022;13.830;2024-03-07T01:51:48;34.65;;;17.45;;
84231;SDS011;74368;48.022;13.830;2024-03-07T01:54:13;39.58;;;18.10;;
84231;SDS011;74368;48.022;13.830;2024-03-07T01:56:39;36.55;;;17.45;;
84231;SDS011;74368;48.022;13.830;2024-03-07T01:59:05;37.90;;;17.63;;
84231;SDS011;74368;48.022;13.830;2024-03-07T02:01:32;33.20;;;17.88;;
84231;SDS011;74368;48.022;13.830;2024-03-07T02:03:58;37.22;;;18.00;;
84231;SDS011;74368;48.022;13.830;2024-03-07T02:06:24;36.67;;;16.17;;
84231;SDS011;74368;48.022;13.830;2024-03-07T02:08:50;34.55;;;15.70;;
84231;SDS011;74368;48.022;13.830;2024-03-07T02:11:16;31.55;;;16.33;;
84231;SDS011;74368;48.022;13.830;2024-03-07T02:13:42;33.78;;;16.77;;
84231;SDS011;74368;48.022;13.830;2024-03-07T02:16:07;34.47;;;16.40;;
84231;SDS011;74368;48.022;13.830;2024-03-07T02:18:33;35.45;;;17.38;;
84231;SDS011;74368;48.022;13.830;2024-03-07T02:21:00;31.73;;;16.17;;
84231;SDS011;74368;48.022;13.830;2024-03-07T02:23:25;38.03;;;15.48;;
84231;SDS011;74368;48.022;13.830;2024-03-07T02:25:52;30.73;;;15.02;;
84231;SDS011;74368;48.022;13.830;2024-03-07T02:28:17;34.70;;;16.48;;
84231;SDS011;74368;48.022;13.830;2024-03-07T02:30:42;38.33;;;16.58;;
84231;SDS011;74368;48.022;13.830;2024-03-07T02:33:10;34.35;;;17.40;;
84231;SDS011;74368;48.022;13.830;2024-03-07T02:35:37;33.53;;;16.88;;
84231;SDS011;74368;48.022;13.830;2024-03-07T02:38:03;37.15;;;17.17;;
84231;SDS011;74368;48.022;13.830;2024-03-07T02:40:29;33.88;;;15.82;;
84231;SDS011;74368;48.022;13.830;2024-03-07T02:42:54;31.75;;;15.77;;
84231;SDS011;74368;48.022;13.830;2024-03-07T02:45:20;34.33;;;15.68;;
84231;SDS011;74368;48.022;13.830;2024-03-07T02:47:45;33.50;;;17.38;;
84231;SDS011;74368;48.022;13.830;2024-03-07T02:50:11;36.28;;;16.02;;
84231;SDS011;74368;48.022;13.830;2024-03-07T02:52:36;34.72;;;18.67;;
84231;SDS011;74368;48.022;13.830;2024-03-07T02:55:02;38.45;;;18.40;;
84231;SDS011;74368;48.022;13.830;2024-03-07T02:57:30;34.58;;;16.98;;
84231;SDS011;74368;48.022;13.830;2024-03-07T02:59:56;39.22;;;18.20;;
84231;SDS011;74368;48.022;13.830;2024-03-07T03:02:21;41.30;;;19.08;;
84231;SDS011;74368;48.022;13.830;2024-03-07T03:04:47;40.83;;;19.42;;
84231;SDS011;74368;48.022;13.830;2024-03-07T03:07:12;38.85;;;18.80;;
84231;SDS011;74368;48.022;13.830;2024-03-07T03:09:38;38.15;;;17.73;;
84231;SDS011;74368;48.022;13.830;2024-03-07T03:12:08;45.75;;;20.27;;
84231;SDS011;74368;48.022;13.830;2024-03-07T03:14:36;41.85;;;19.02;;
84231;SDS011;74368;48.022;13.830;2024-03-07T03:17:01;42.35;;;20.77;;
84231;SDS011;74368;48.022;13.830;2024-03-07T03:19:27;41.90;;;19.83;;
84231;SDS011;74368;48.022;13.830;2024-03-07T03:21:53;40.08;;;19.65;;
84231;SDS011;74368;48.022;13.830;2024-03-07T03:24:20;43.28;;;20.13;;
84231;SDS011;74368;48.022;13.830;2024-03-07T03:26:46;39.80;;;19.58;;
84231;SDS011;74368;48.022;13.830;2024-03-07T03:29:11;42.33;;;19.65;;
84231;SDS011;74368;48.022;13.830;2024-03-07T03:31:38;42.80;;;20.45;;
84231;SDS011;74368;48.022;13.830;2024-03-07T03:34:04;43.80;;;20.35;;
84231;SDS011;74368;48.022;13.830;2024-03-07T03:36:29;41.28;;;18.70;;
84231;SDS011;74368;48.022;13.830;2024-03-07T03:38:54;42.60;;;20.45;;
84231;SDS011;74368;48.022;13.830;2024-03-07T03:41:20;53.20;;;22.13;;
84231;SDS011;74368;48.022;13.830;2024-03-07T03:43:45;45.53;;;20.20;;
84231;SDS011;74368;48.022;13.830;2024-03-07T03:46:12;45.00;;;21.85;;
84231;SDS011;74368;48.022;13.830;2024-03-07T03:48:41;52.00;;;22.52;;
84231;SDS011;74368;48.022;13.830;2024-03-07T03:51:10;46.25;;;21.45;;
84231;SDS011;74368;48.022;13.830;2024-03-07T03:53:38;45.03;;;20.45;;
84231;SDS011;74368;48.022;13.830;2024-03-07T03:56:03;44.78;;;20.27;;
84231;SDS011;74368;48.022;13.830;2024-03-07T03:58:32;51.63;;;21.67;;
84231;SDS011;74368;48.022;13.830;2024-03-07T04:00:57;45.78;;;19.55;;
84231;SDS011;74368;48.022;13.830;2024-03-07T04:03:25;45.70;;;21.23;;
84231;SDS011;74368;48.022;13.830;2024-03-07T04:05:51;46.33;;;21.67;;
84231;SDS011;74368;48.022;13.830;2024-03-07T04:08:17;48.42;;;21.45;;
84231;SDS011;74368;48.022;13.830;2024-03-07T04:10:45;48.13;;;20.52;;
84231;SDS011;74368;48.022;13.830;2024-03-07T04:13:10;44.42;;;19.77;;
84231;SDS011;74368;48.022;13.830;2024-03-07T04:15:35;51.22;;;21.08;;
84231;SDS011;74368;48.022;13.830;2024-03-07T04:18:01;47.30;;;21.17;;
84231;SDS011;74368;48.022;13.830;2024-03-07T04:20:26;47.72;;;21.60;;
84231;SDS011;74368;48.022;13.830;2024-03-07T04:22:52;48.85;;;21.98;;
84231;SDS011;74368;48.022;13.830;2024-03-07T04:25:17;52.25;;;22.27;;
84231;SDS011;74368;48.022;13.830;2024-03-07T04:27:43;48.78;;;22.00;;
84231;SDS011;74368;48.022;13.830;2024-03-07T04:30:08;47.45;;;20.65;;
84231;SDS011;74368;48.022;13.830;2024-03-07T04:32:37;48.58;;;21.00;;
84231;SDS011;74368;48.022;13.830;2024-03-07T04:35:06;50.28;;;22.73;;
84231;SDS011;74368;48.022;13.830;2024-03-07T04:37:41;48.20;;;20.77;;
84231;SDS011;74368;48.022;13.830;2024-03-07T04:40:07;48.08;;;21.90;;
84231;SDS011;74368;48.022;13.830;2024-03-07T04:42:44;48.13;;;20.73;;
84231;SDS011;74368;48.022;13.830;2024-03-07T04:45:11;50.15;;;21.52;;
84231;SDS011;74368;48.022;13.830;2024-03-07T04:47:38;46.55;;;22.83;;
84231;SDS011;74368;48.022;13.830;2024-03-07T04:50:05;48.20;;;20.30;;
84231;SDS011;74368;48.022;13.830;2024-03-07T04:52:30;51.03;;;22.05;;
84231;SDS011;74368;48.022;13.830;2024-03-07T04:54:55;51.00;;;21.75;;
84231;SDS011;74368;48.022;13.830;2024-03-07T04:57:21;50.30;;;22.23;;
84231;SDS011;74368;48.022;13.830;2024-03-07T04:59:46;42.30;;;20.65;;
84231;SDS011;74368;48.022;13.830;2024-03-07T05:02:12;51.22;;;22.40;;
84231;SDS011;74368;48.022;13.830;2024-03-07T05:04:38;45.97;;;20.58;;
84231;SDS011;74368;48.022;13.830;2024-03-07T05:07:03;46.45;;;20.02;;
84231;SDS011;74368;48.022;13.830;2024-03-07T05:09:28;43.72;;;19.92;;
84231;SDS011;74368;48.022;13.830;2024-03-07T05:11:54;49.13;;;21.45;;
84231;SDS011;74368;48.022;13.830;2024-03-07T05:14:20;52.58;;;22.20;;
84231;SDS011;74368;48.022;13.830;2024-03-07T05:16:47;55.05;;;23.70;;
84231;SDS011;74368;48.022;13.830;2024-03-07T05:19:29;51.15;;;21.95;;
84231;SDS011;74368;48.022;13.830;2024-03-07T05:21:55;52.75;;;20.85;;
84231;SDS011;74368;48.022;13.830;2024-03-07T05:24:20;56.08;;;23.20;;
84231;SDS011;74368;48.022;13.830;2024-03-07T05:26:46;50.75;;;21.50;;
84231;SDS011;74368;48.022;13.830;2024-03-07T05:29:11;49.03;;;21.98;;
84231;SDS011;74368;48.022;13.830;2024-03-07T05:31:37;48.40;;;21.70;;
84231;SDS011;74368;48.022;13.830;2024-03-07T05:34:04;52.42;;;23.08;;
84231;SDS011;74368;48.022;13.830;2024-03-07T05:36:33;52.08;;;22.80;;
84231;SDS011;74368;48.022;13.830;2024-03-07T05:39:08;50.67;;;21.35;;
84231;SDS011;74368;48.022;13.830;2024-03-07T05:41:35;50.83;;;22.35;;
84231;SDS011;74368;48.022;13.830;2024-03-07T05:44:01;51.65;;;21.75;;
84231;SDS011;74368;48.022;13.830;2024-03-07T05:46:26;53.78;;;20.55;;
84231;SDS011;74368;48.022;13.830;2024-03-07T05:48:52;49.13;;;22.63;;
84231;SDS011;74368;48.022;13.830;2024-03-07T05:51:21;44.38;;;19.60;;
84231;SDS011;74368;48.022;13.830;2024-03-07T05:53:48;49.15;;;20.88;;
84231;SDS011;74368;48.022;13.830;2024-03-07T05:56:13;48.80;;;22.02;;
84231;SDS011;74368;48.022;13.830;2024-03-07T05:58:39;54.05;;;22.23;;
84231;SDS011;74368;48.022;13.830;2024-03-07T06:01:05;51.55;;;22.08;;
84231;SDS011;74368;48.022;13.830;2024-03-07T06:03:30;53.10;;;24.75;;
84231;SDS011;74368;48.022;13.830;2024-03-07T06:05:55;51.45;;;24.80;;
84231;SDS011;74368;48.022;13.830;2024-03-07T06:08:21;48.85;;;23.55;;
84231;SDS011;74368;48.022;13.830;2024-03-07T06:10:46;53.78;;;22.90;;
84231;SDS011;74368;48.022;13.830;2024-03-07T06:13:14;55.45;;;25.75;;
84231;SDS011;74368;48.022;13.830;2024-03-07T06:15:43;76.47;;;38.13;;
84231;SDS011;74368;48.022;13.830;2024-03-07T06:18:09;68.88;;;40.97;;
84231;SDS011;74368;48.022;13.830;2024-03-07T06:23:05;54.63;;;23.35;;
84231;SDS011;74368;48.022;13.830;2024-03-07T06:25:34;48.40;;;21.10;;
84231;SDS011;74368;48.022;13.830;2024-03-07T06:28:12;55.88;;;22.08;;
84231;SDS011;74368;48.022;13.830;2024-03-07T06:30:42;50.60;;;21.70;;
84231;SDS011;74368;48.022;13.830;2024-03-07T06:33:09;48.72;;;21.73;;
84231;SDS011;74368;48.022;13.830;2024-03-07T06:35:35;53.00;;;23.75;;
84231;SDS011;74368;48.022;13.830;2024-03-07T06:38:02;55.85;;;23.35;;
84231;SDS011;74368;48.022;13.830;2024-03-07T06:40:53;49.58;;;21.90;;
84231;SDS011;74368;48.022;13.830;2024-03-07T06:43:19;45.30;;;21.58;;
84231;SDS011;74368;48.022;13.830;2024-03-07T06:45:44;47.28;;;20.45;;
84231;SDS011;74368;48.022;13.830;2024-03-07T06:48:11;46.47;;;21.23;;
84231;SDS011;74368;48.022;13.830;2024-03-07T06:50:37;48.00;;;21.42;;
84231;SDS011;74368;48.022;13.830;2024-03-07T06:53:03;54.58;;;23.92;;
84231;SDS011;74368;48.022;13.830;2024-03-07T06:55:31;48.10;;;21.33;;
84231;SDS011;74368;48.022;13.830;2024-03-07T06:57:58;47.90;;;21.63;;
84231;SDS011;74368;48.022;13.830;2024-03-07T07:00:24;50.35;;;22.20;;
84231;SDS011;74368;48.022;13.830;2024-03-07T07:02:51;49.20;;;22.77;;
84231;SDS011;74368;48.022;13.830;2024-03-07T07:05:18;52.58;;;22.65;;
84231;SDS011;74368;48.022;13.830;2024-03-07T07:07:46;50.20;;;21.67;;
84231;SDS011;74368;48.022;13.830;2024-03-07T07:10:13;50.70;;;21.85;;
84231;SDS011;74368;48.022;13.830;2024-03-07T07:12:46;49.00;;;21.77;;
84231;SDS011;74368;48.022;13.830;2024-03-07T07:15:13;51.70;;;22.17;;
84231;SDS011;74368;48.022;13.830;2024-03-07T07:17:40;57.53;;;23.58;;
84231;SDS011;74368;48.022;13.830;2024-03-07T07:20:06;51.97;;;25.67;;
84231;SDS011;74368;48.022;13.830;2024-03-07T07:22:35;55.25;;;23.42;;
84231;SDS011;74368;48.022;13.830;2024-03-07T07:25:04;51.65;;;23.10;;
84231;SDS011;74368;48.022;13.830;2024-03-07T07:27:31;52.42;;;22.60;;
84231;SDS011;74368;48.022;13.830;2024-03-07T07:29:57;52.25;;;24.67;;
84231;SDS011;74368;48.022;13.830;2024-03-07T07:32:23;56.15;;;22.30;;
84231;SDS011;74368;48.022;13.830;2024-03-07T07:34:48;54.38;;;22.52;;
84231;SDS011;74368;48.022;13.830;2024-03-07T07:37:14;54.65;;;22.70;;
84231;SDS011;74368;48.022;13.830;2024-03-07T07:39:39;56.45;;;24.45;;
84231;SDS011;74368;48.022;13.830;2024-03-07T07:42:05;70.45;;;32.17;;
84231;SDS011;74368;48.022;13.830;2024-03-07T07:44:30;67.50;;;29.13;;
84231;SDS011;74368;48.022;13.830;2024-03-07T07:46:55;53.72;;;24.80;;
84231;SDS011;74368;48.022;13.830;2024-03-07T07:49:21;55.17;;;24.38;;
84231;SDS011;74368;48.022;13.830;2024-03-07T07:51:46;67.95;;;32.60;;
84231;SDS011;74368;48.022;13.830;2024-03-07T07:54:13;91.93;;;38.10;;
84231;SDS011;74368;48.022;13.830;2024-03-07T07:56:39;114.20;;;45.38;;
84231;SDS011;74368;48.022;13.830;2024-03-07T07:59:04;67.35;;;29.52;;
84231;SDS011;74368;48.022;13.830;2024-03-07T08:01:30;86.72;;;40.65;;
84231;SDS011;74368;48.022;13.830;2024-03-07T08:03:55;65.97;;;29.58;;
84231;SDS011;74368;48.022;13.830;2024-03-07T08:06:20;77.85;;;36.47;;
84231;SDS011;74368;48.022;13.830;2024-03-07T08:08:46;60.00;;;28.67;;
84231;SDS011;74368;48.022;13.830;2024-03-07T08:11:11;47.80;;;22.50;;
84231;SDS011;74368;48.022;13.830;2024-03-07T08:13:39;51.35;;;24.95;;
84231;SDS011;74368;48.022;13.830;2024-03-07T08:16:05;55.85;;;29.67;;
84231;SDS011;74368;48.022;13.830;2024-03-07T08:18:30;50.13;;;23.23;;
84231;SDS011;74368;48.022;13.830;2024-03-07T08:20:56;48.78;;;22.83;;
84231;SDS011;74368;48.022;13.830;2024-03-07T08:23:21;44.67;;;22.08;;
84231;SDS011;74368;48.022;13.830;2024-03-07T08:25:50;44.38;;;21.42;;
84231;SDS011;74368;48.022;13.830;2024-03-07T08:28:15;40.90;;;19.55;;
84231;SDS011;74368;48.022;13.830;2024-03-07T08:30:40;45.25;;;21.85;;
84231;SDS011;74368;48.022;13.830;2024-03-07T08:33:06;42.03;;;19.83;;
84231;SDS011;74368;48.022;13.830;2024-03-07T08:35:32;42.58;;;19.55;;
84231;SDS011;74368;48.022;13.830;2024-03-07T08:37:58;47.97;;;19.90;;
84231;SDS011;74368;48.022;13.830;2024-03-07T08:40:27;42.97;;;20.85;;
84231;SDS011;74368;48.022;13.830;2024-03-07T08:42:57;40.97;;;19.42;;
84231;SDS011;74368;48.022;13.830;2024-03-07T08:45:24;44.42;;;18.73;;
84231;SDS011;74368;48.022;13.830;2024-03-07T08:47:50;38.22;;;19.17;;
84231;SDS011;74368;48.022;13.830;2024-03-07T08:50:17;41.95;;;19.70;;
84231;SDS011;74368;48.022;13.830;2024-03-07T08:52:45;40.33;;;18.75;;
84231;SDS011;74368;48.022;13.830;2024-03-07T08:55:23;40.22;;;18.67;;
84231;SDS011;74368;48.022;13.830;2024-03-07T08:57:49;36.78;;;17.65;;
84231;SDS011;74368;48.022;13.830;2024-03-07T09:00:16;33.40;;;15.93;;
84231;SDS011;74368;48.022;13.830;2024-03-07T09:02:55;32.53;;;15.65;;
84231;SDS011;74368;48.022;13.830;2024-03-07T09:05:24;41.45;;;17.95;;
84231;SDS011;74368;48.022;13.830;2024-03-07T09:07:50;35.90;;;16.63;;
84231;SDS011;74368;48.022;13.830;2024-03-07T09:10:16;34.03;;;16.23;;
84231;SDS011;74368;48.022;13.830;2024-03-07T09:12:45;32.47;;;16.52;;
84231;SDS011;74368;48.022;13.830;2024-03-07T09:15:11;33.45;;;16.17;;
84231;SDS011;74368;48.022;13.830;2024-03-07T09:17:41;37.78;;;17.20;;
84231;SDS011;74368;48.022;13.830;2024-03-07T09:20:07;38.58;;;17.08;;
84231;SDS011;74368;48.022;13.830;2024-03-07T09:22:48;33.17;;;16.38;;
84231;SDS011;74368;48.022;13.830;2024-03-07T09:25:15;31.58;;;15.93;;
84231;SDS011;74368;48.022;13.830;2024-03-07T09:27:41;32.85;;;16.58;;
84231;SDS011;74368;48.022;13.830;2024-03-07T09:30:09;33.38;;;16.30;;
84231;SDS011;74368;48.022;13.830;2024-03-07T09:32:40;37.35;;;17.08;;
84231;SDS011;74368;48.022;13.830;2024-03-07T09:35:07;37.05;;;16.73;;
84231;SDS011;74368;48.022;13.830;2024-03-07T09:37:36;36.63;;;17.15;;
84231;SDS011;74368;48.022;13.830;2024-03-07T09:40:02;33.40;;;15.88;;
84231;SDS011;74368;48.022;13.830;2024-03-07T09:42:29;37.25;;;18.02;;
84231;SDS011;74368;48.022;13.830;2024-03-07T09:44:55;40.63;;;16.98;;
84231;SDS011;74368;48.022;13.830;2024-03-07T09:47:23;37.15;;;16.70;;
84231;SDS011;74368;48.022;13.830;2024-03-07T09:49:49;34.78;;;17.77;;
84231;SDS011;74368;48.022;13.830;2024-03-07T09:52:14;34.42;;;17.02;;
84231;SDS011;74368;48.022;13.830;2024-03-07T09:54:41;38.45;;;17.52;;
84231;SDS011;74368;48.022;13.830;2024-03-07T09:57:07;38.22;;;17.35;;
84231;SDS011;74368;48.022;13.830;2024-03-07T09:59:35;39.50;;;17.52;;
84231;SDS011;74368;48.022;13.830;2024-03-07T10:02:03;32.75;;;15.73;;
84231;SDS011;74368;48.022;13.830;2024-03-07T10:05:05;32.70;;;15.63;;
84231;SDS011;74368;48.022;13.830;2024-03-07T10:07:24;34.15;;;16.70;;
84231;SDS011;74368;48.022;13.830;2024-03-07T10:09:50;33.30;;;16.88;;
84231;SDS011;74368;48.022;13.830;2024-03-07T10:12:17;32.80;;;17.35;;
84231;SDS011;74368;48.022;13.830;2024-03-07T10:14:50;33.10;;;16.17;;
84231;SDS011;74368;48.022;13.830;2024-03-07T10:17:20;34.97;;;15.90;;
84231;SDS011;74368;48.022;13.830;2024-03-07T10:19:51;29.63;;;15.00;;
84231;SDS011;74368;48.022;13.830;2024-03-07T10:22:18;32.40;;;16.67;;
84231;SDS011;74368;48.022;13.830;2024-03-07T10:24:53;30.10;;;15.30;;
84231;SDS011;74368;48.022;13.830;2024-03-07T10:27:20;32.17;;;16.30;;
84231;SDS011;74368;48.022;13.830;2024-03-07T10:29:49;28.40;;;14.23;;
84231;SDS011;74368;48.022;13.830;2024-03-07T10:32:20;30.98;;;14.73;;
84231;SDS011;74368;48.022;13.830;2024-03-07T10:34:47;28.02;;;14.57;;
84231;SDS011;74368;48.022;13.830;2024-03-07T10:37:13;31.70;;;13.88;;
84231;SDS011;74368;48.022;13.830;2024-03-07T10:39:42;28.30;;;14.65;;
84231;SDS011;74368;48.022;13.830;2024-03-07T10:42:09;27.85;;;15.02;;
84231;SDS011;74368;48.022;13.830;2024-03-07T10:44:40;28.70;;;14.73;;
84231;SDS011;74368;48.022;13.830;2024-03-07T10:47:11;24.23;;;13.13;;
84231;SDS011;74368;48.022;13.830;2024-03-07T10:49:44;31.27;;;15.55;;
84231;SDS011;74368;48.022;13.830;2024-03-07T10:52:20;27.17;;;13.80;;
84231;SDS011;74368;48.022;13.830;2024-03-07T10:57:31;23.88;;;12.73;;
84231;SDS011;74368;48.022;13.830;2024-03-07T11:00:01;27.77;;;14.50;;
84231;SDS011;74368;48.022;13.830;2024-03-07T11:02:49;24.67;;;12.75;;
84231;SDS011;74368;48.022;13.830;2024-03-07T11:05:18;26.40;;;13.85;;
84231;SDS011;74368;48.022;13.830;2024-03-07T11:07:44;27.52;;;14.10;;
84231;SDS011;74368;48.022;13.830;2024-03-07T11:10:10;21.92;;;12.90;;
84231;SDS011;74368;48.022;13.830;2024-03-07T11:12:36;27.15;;;14.38;;
84231;SDS011;74368;48.022;13.830;2024-03-07T11:15:06;19.98;;;10.82;;
84231;SDS011;74368;48.022;13.830;2024-03-07T11:17:39;21.67;;;11.40;;
84231;SDS011;74368;48.022;13.830;2024-03-07T11:22:44;23.48;;;11.35;;
84231;SDS011;74368;48.022;13.830;2024-03-07T11:25:10;23.70;;;11.75;;
84231;SDS011;74368;48.022;13.830;2024-03-07T11:27:37;21.35;;;11.23;;
84231;SDS011;74368;48.022;13.830;2024-03-07T11:30:07;23.58;;;12.60;;
84231;SDS011;74368;48.022;13.830;2024-03-07T11:32:35;24.00;;;11.38;;
84231;SDS011;74368;48.022;13.830;2024-03-07T11:35:04;22.55;;;11.68;;
84231;SDS011;74368;48.022;13.830;2024-03-07T11:37:40;20.95;;;11.48;;
84231;SDS011;74368;48.022;13.830;2024-03-07T11:40:13;19.10;;;10.27;;
84231;SDS011;74368;48.022;13.830;2024-03-07T11:42:47;18.90;;;10.45;;
84231;SDS011;74368;48.022;13.830;2024-03-07T11:45:14;20.52;;;10.90;;
84231;SDS011;74368;48.022;13.830;2024-03-07T11:47:58;23.52;;;11.27;;
84231;SDS011;74368;48.022;13.830;2024-03-07T11:50:39;20.55;;;10.88;;
84231;SDS011;74368;48.022;13.830;2024-03-07T11:53:06;20.33;;;10.65;;
84231;SDS011;74368;48.022;13.830;2024-03-07T11:55:32;22.75;;;11.73;;
84231;SDS011;74368;48.022;13.830;2024-03-07T11:58:06;18.88;;;10.25;;
84231;SDS011;74368;48.022;13.830;2024-03-07T12:00:37;19.42;;;10.25;;
84231;SDS011;74368;48.022;13.830;2024-03-07T12:03:07;20.75;;;10.68;;
84231;SDS011;74368;48.022;13.830;2024-03-07T12:05:33;21.42;;;9.48;;
84231;SDS011;74368;48.022;13.830;2024-03-07T12:07:59;19.23;;;10.32;;
84231;SDS011;74368;48.022;13.830;2024-03-07T12:10:25;18.50;;;10.45;;
84231;SDS011;74368;48.022;13.830;2024-03-07T12:12:53;19.65;;;10.50;;
84231;SDS011;74368;48.022;13.830;2024-03-07T12:15:21;20.40;;;10.65;;
84231;SDS011;74368;48.022;13.830;2024-03-07T12:17:47;17.08;;;9.60;;
84231;SDS011;74368;48.022;13.830;2024-03-07T12:20:14;20.70;;;10.52;;
84231;SDS011;74368;48.022;13.830;2024-03-07T12:23:05;19.05;;;10.27;;
84231;SDS011;74368;48.022;13.830;2024-03-07T12:25:32;18.58;;;10.32;;
84231;SDS011;74368;48.022;13.830;2024-03-07T12:27:59;22.73;;;11.18;;
84231;SDS011;74368;48.022;13.830;2024-03-07T12:30:31;19.33;;;10.25;;
84231;SDS011;74368;48.022;13.830;2024-03-07T12:32:58;20.10;;;10.98;;
84231;SDS011;74368;48.022;13.830;2024-03-07T12:35:24;18.08;;;10.18;;
84231;SDS011;74368;48.022;13.830;2024-03-07T12:37:50;23.25;;;12.38;;
84231;SDS011;74368;48.022;13.830;2024-03-07T12:40:16;21.63;;;11.70;;
84231;SDS011;74368;48.022;13.830;2024-03-07T12:42:47;22.23;;;11.07;;
84231;SDS011;74368;48.022;13.830;2024-03-07T12:45:13;19.20;;;10.75;;
84231;SDS011;74368;48.022;13.830;2024-03-07T12:47:43;20.80;;;10.68;;
84231;SDS011;74368;48.022;13.830;2024-03-07T12:50:12;23.73;;;12.70;;
84231;SDS011;74368;48.022;13.830;2024-03-07T12:52:37;22.55;;;11.00;;
84231;SDS011;74368;48.022;13.830;2024-03-07T12:55:03;20.58;;;10.93;;
84231;SDS011;74368;48.022;13.830;2024-03-07T12:57:31;24.55;;;12.10;;
84231;SDS011;74368;48.022;13.830;2024-03-07T12:59:56;21.90;;;11.50;;
84231;SDS011;74368;48.022;13.830;2024-03-07T13:02:21;23.60;;;11.80;;
84231;SDS011;74368;48.022;13.830;2024-03-07T13:04:51;21.23;;;10.70;;
84231;SDS011;74368;48.022;13.830;2024-03-07T13:07:16;23.00;;;12.25;;
84231;SDS011;74368;48.022;13.830;2024-03-07T13:09:41;22.75;;;10.82;;
84231;SDS011;74368;48.022;13.830;2024-03-07T13:12:09;22.88;;;11.30;;
84231;SDS011;74368;48.022;13.830;2024-03-07T13:14:34;21.10;;;10.45;;
84231;SDS011;74368;48.022;13.830;2024-03-07T13:17:03;19.90;;;10.13;;
84231;SDS011;74368;48.022;13.830;2024-03-07T13:19:29;20.48;;;11.25;;
84231;SDS011;74368;48.022;13.830;2024-03-07T13:21:55;19.50;;;10.60;;
84231;SDS011;74368;48.022;13.830;2024-03-07T13:24:21;22.50;;;11.07;;
84231;SDS011;74368;48.022;13.830;2024-03-07T13:26:47;18.67;;;9.75;;
84231;SDS011;74368;48.022;13.830;2024-03-07T13:29:16;19.92;;;10.80;;
84231;SDS011;74368;48.022;13.830;2024-03-07T13:31:42;21.35;;;11.00;;
84231;SDS011;74368;48.022;13.830;2024-03-07T13:34:09;19.48;;;11.07;;
84231;SDS011;74368;48.022;13.830;2024-03-07T13:36:38;21.20;;;10.80;;
84231;SDS011;74368;48.022;13.830;2024-03-07T13:39:08;22.83;;;10.88;;
84231;SDS011;74368;48.022;13.830;2024-03-07T13:41:37;20.42;;;11.27;;
84231;SDS011;74368;48.022;13.830;2024-03-07T13:44:03;20.92;;;11.23;;
84231;SDS011;74368;48.022;13.830;2024-03-07T13:46:29;21.50;;;11.23;;
84231;SDS011;74368;48.022;13.830;2024-03-07T13:48:57;22.30;;;11.48;;
84231;SDS011;74368;48.022;13.830;2024-03-07T13:51:31;23.88;;;12.00;;
84231;SDS011;74368;48.022;13.830;2024-03-07T13:54:00;20.70;;;10.77;;
84231;SDS011;74368;48.022;13.830;2024-03-07T13:56:42;16.13;;;9.60;;
84231;SDS011;74368;48.022;13.830;2024-03-07T13:59:37;20.38;;;10.73;;
84231;SDS011;74368;48.022;13.830;2024-03-07T14:05:38;21.23;;;10.55;;
84231;SDS011;74368;48.022;13.830;2024-03-07T14:08:22;21.80;;;10.98;;
84231;SDS011;74368;48.022;13.830;2024-03-07T14:13:48;22.60;;;11.18;;
84231;SDS011;74368;48.022;13.830;2024-03-07T14:28:42;18.17;;;10.90;;
84231;SDS011;74368;48.022;13.830;2024-03-07T14:31:20;20.60;;;11.43;;
84231;SDS011;74368;48.022;13.830;2024-03-07T14:36:32;22.13;;;12.32;;
84231;SDS011;74368;48.022;13.830;2024-03-07T14:39:02;21.10;;;10.65;;
84231;SDS011;74368;48.022;13.830;2024-03-07T14:44:17;24.95;;;11.75;;